createdAt,value
2018-11-27T00:00:36.153Z,101278.14
2018-11-27T00:03:06.031Z,101274.58
2018-11-27T00:05:34.622Z,101277.99
2018-11-27T00:08:02.293Z,101279.64
2018-11-27T00:10:30.999Z,101278.55
2018-11-27T00:13:02.164Z,101281.91
2018-11-27T00:15:29.743Z,101281.02
2018-11-27T00:17:57.287Z,101281.42
2018-11-27T00:20:24.775Z,101280.45
2018-11-27T00:22:52.219Z,101289.67
2018-11-27T00:25:19.547Z,101291.73
2018-11-27T00:27:47.072Z,101289.55
2018-11-27T00:30:16.012Z,101291.61
2018-11-27T00:32:43.388Z,101291.73
2018-11-27T00:35:11.771Z,101300.03
2018-11-27T00:37:39.124Z,101297.66
2018-11-27T00:40:13.011Z,101295.72
2018-11-27T00:42:40.335Z,101300.55
2018-11-27T00:45:09.340Z,101306.48
2018-11-27T00:47:36.715Z,101304.08
2018-11-27T00:50:12.656Z,101301.78
2018-11-27T00:52:40.047Z,101311.65
2018-11-27T00:55:08.949Z,101304.55
2018-11-27T00:57:36.463Z,101309.25
2018-11-27T01:00:06.700Z,101313.92
2018-11-27T01:02:33.944Z,101312.17
2018-11-27T01:05:01.151Z,101309.78
2018-11-27T01:07:28.434Z,101318.74
2018-11-27T01:09:55.720Z,101321.79
2018-11-27T01:12:23.067Z,101325.38
2018-11-27T01:14:50.406Z,101324.62
2018-11-27T01:17:17.753Z,101329.02
2018-11-27T01:19:45.107Z,101333.74
2018-11-27T01:22:12.485Z,101328.58
2018-11-27T01:24:39.803Z,101338.02
2018-11-27T01:27:07.153Z,101334.34
2018-11-27T01:29:34.469Z,101328.47
2018-11-27T01:32:01.801Z,101330.77
2018-11-27T01:34:29.101Z,101325.25
2018-11-27T01:36:56.472Z,101330.33
2018-11-27T01:39:23.799Z,101325.11
2018-11-27T01:41:51.098Z,101327.96
2018-11-27T01:44:18.532Z,101330.98
2018-11-27T01:46:45.844Z,101329.61
2018-11-27T01:49:13.099Z,101331.95
2018-11-27T01:51:40.530Z,101335.63
2018-11-27T01:54:13.116Z,101337.59
2018-11-27T01:56:40.557Z,101331.94
2018-11-27T01:59:07.964Z,101337.50
2018-11-27T02:01:35.305Z,101327.42
2018-11-27T02:04:02.871Z,101329.80
2018-11-27T02:06:30.329Z,101329.68
2018-11-27T02:08:57.851Z,101324.02
2018-11-27T02:11:25.339Z,101332.02
2018-11-27T02:13:52.785Z,101334.55
2018-11-27T02:16:20.293Z,101334.43
2018-11-27T02:18:47.767Z,101337.48
2018-11-27T02:21:15.822Z,101335.48
2018-11-27T02:23:45.347Z,101350.14
2018-11-27T02:26:12.735Z,101344.52
2018-11-27T02:28:40.174Z,101350.50
2018-11-27T02:31:07.536Z,101349.35
2018-11-27T02:33:35.015Z,101359.08
2018-11-27T02:36:02.481Z,101353.86
2018-11-27T02:38:29.948Z,101360.63
2018-11-27T02:40:57.347Z,101360.78
2018-11-27T02:43:24.723Z,101365.87
2018-11-27T02:45:52.197Z,101364.97
2018-11-27T02:48:19.560Z,101366.90
2018-11-27T02:50:46.971Z,101376.27
2018-11-27T02:53:14.323Z,101374.98
2018-11-27T02:55:42.737Z,101378.91
2018-11-27T02:58:10.159Z,101378.03
2018-11-27T03:00:37.502Z,101376.98
2018-11-27T03:03:05.530Z,101385.55
2018-11-27T03:05:35.173Z,101378.44
2018-11-27T03:08:02.749Z,101379.27
2018-11-27T03:10:30.180Z,101376.75
2018-11-27T03:12:57.537Z,101379.64
2018-11-27T03:15:24.880Z,101385.21
2018-11-27T03:17:52.304Z,101390.25
2018-11-27T03:20:19.668Z,101384.61
2018-11-27T03:22:46.988Z,101383.66
2018-11-27T03:25:19.357Z,101385.36
2018-11-27T03:27:47.608Z,101392.13
2018-11-27T03:30:16.897Z,101393.55
2018-11-27T03:32:44.343Z,101397.64
2018-11-27T03:35:14.353Z,101397.57
2018-11-27T03:37:41.843Z,101399.33
2018-11-27T03:40:15.244Z,101402.11
2018-11-27T03:42:42.685Z,101406.95
2018-11-27T03:45:11.247Z,101403.02
2018-11-27T03:47:38.683Z,101413.52
2018-11-27T03:50:16.812Z,101421.66
2018-11-27T03:52:44.165Z,101418.48
2018-11-27T03:55:12.145Z,101416.77
2018-11-27T03:57:39.394Z,101415.00
2018-11-27T04:00:14.203Z,101420.31
2018-11-27T04:02:41.681Z,101423.20
2018-11-27T04:05:10.150Z,101423.96
2018-11-27T04:07:37.522Z,101420.09
2018-11-27T04:10:10.116Z,101420.84
2018-11-27T04:12:37.446Z,101417.58
2018-11-27T04:15:05.239Z,101418.14
2018-11-27T04:17:32.589Z,101419.00
2018-11-27T04:19:59.966Z,101427.14
2018-11-27T04:22:27.254Z,101422.39
2018-11-27T04:24:54.629Z,101427.55
2018-11-27T04:27:21.978Z,101429.46
2018-11-27T04:29:49.399Z,101430.25
2018-11-27T04:32:16.657Z,101433.80
2018-11-27T04:34:44.008Z,101435.41
2018-11-27T04:37:11.356Z,101450.73
2018-11-27T04:39:38.620Z,101444.57
2018-11-27T04:42:05.928Z,101438.44
2018-11-27T04:44:33.208Z,101444.16
2018-11-27T04:47:00.604Z,101445.91
2018-11-27T04:49:27.980Z,101441.88
2018-11-27T04:51:55.193Z,101452.72
2018-11-27T04:54:22.486Z,101452.78
2018-11-27T04:56:49.748Z,101454.52
2018-11-27T04:59:17.021Z,101458.05
2018-11-27T05:01:46.256Z,101459.06
2018-11-27T05:04:17.372Z,101458.59
2018-11-27T05:06:44.850Z,101459.58
2018-11-27T05:09:12.221Z,101469.48
2018-11-27T05:11:39.509Z,101470.91
2018-11-27T05:14:06.892Z,101472.16
2018-11-27T05:16:34.115Z,101476.47
2018-11-27T05:19:05.133Z,101474.13
2018-11-27T05:21:32.451Z,101474.30
2018-11-27T05:23:59.763Z,101473.31
2018-11-27T05:26:27.045Z,101476.88
2018-11-27T05:28:54.593Z,101476.78
2018-11-27T05:31:21.865Z,101485.05
2018-11-27T05:33:49.179Z,101499.02
2018-11-27T05:36:17.444Z,101491.02
2018-11-27T05:38:45.688Z,101489.25
2018-11-27T05:41:13.072Z,101499.42
2018-11-27T05:43:40.339Z,101497.42
2018-11-27T05:46:07.690Z,101504.58
2018-11-27T05:48:35.824Z,101509.59
2018-11-27T05:51:03.289Z,101495.12
2018-11-27T05:53:30.544Z,101506.44
2018-11-27T05:55:57.795Z,101505.83
2018-11-27T05:58:25.063Z,101503.52
2018-11-27T06:00:52.401Z,101508.00
2018-11-27T06:03:19.779Z,101502.91
2018-11-27T06:05:47.214Z,101512.98
2018-11-27T06:08:14.519Z,101514.03
2018-11-27T06:10:41.853Z,101522.23
2018-11-27T06:13:09.187Z,101523.48
2018-11-27T06:15:36.509Z,101528.86
2018-11-27T06:18:04.019Z,101535.61
2018-11-27T06:20:31.399Z,101535.30
2018-11-27T06:22:59.279Z,101551.16
2018-11-27T06:25:28.032Z,101548.44
2018-11-27T06:27:58.166Z,101554.41
2018-11-27T06:30:27.912Z,101563.72
2018-11-27T06:32:55.288Z,101571.44
2018-11-27T06:35:27.791Z,101573.47
2018-11-27T06:37:55.162Z,101577.66
2018-11-27T06:40:24.214Z,101579.98
2018-11-27T06:42:52.033Z,101589.94
2018-11-27T06:45:20.042Z,101590.60
2018-11-27T06:47:48.523Z,101588.98
2018-11-27T06:50:17.069Z,101593.58
2018-11-27T06:52:44.871Z,101593.66
2018-11-27T06:55:15.547Z,101597.67
2018-11-27T06:57:43.427Z,101583.28
2018-11-27T07:00:18.967Z,101592.19
2018-11-27T07:02:46.679Z,101595.60
2018-11-27T07:05:14.559Z,101594.52
2018-11-27T07:07:42.140Z,101600.95
2018-11-27T07:10:16.692Z,101610.63
2018-11-27T07:12:44.151Z,101608.80
2018-11-27T07:15:14.595Z,101614.41
2018-11-27T07:17:41.975Z,101616.73
2018-11-27T07:20:10.607Z,101616.72
2018-11-27T07:22:41.039Z,101616.16
2018-11-27T07:25:10.924Z,101615.59
2018-11-27T07:27:38.323Z,101618.44
2018-11-27T07:30:09.799Z,101622.79
2018-11-27T07:32:37.117Z,101627.84
2018-11-27T07:35:06.057Z,101623.87
2018-11-27T07:37:33.589Z,101626.83
2018-11-27T07:40:03.459Z,101623.59
2018-11-27T07:42:30.943Z,101627.28
2018-11-27T07:44:58.392Z,101625.71
2018-11-27T07:47:26.546Z,101633.45
2018-11-27T07:49:54.201Z,101636.39
2018-11-27T07:52:21.680Z,101640.63
2018-11-27T07:54:49.737Z,101639.78
2018-11-27T07:57:20.984Z,101650.45
2018-11-27T07:59:50.055Z,101650.67
2018-11-27T08:02:18.601Z,101638.14
2018-11-27T08:04:48.605Z,101645.92
2018-11-27T08:07:16.255Z,101650.95
2018-11-27T08:09:46.926Z,101655.48
2018-11-27T08:12:14.709Z,101660.30
2018-11-27T08:14:42.479Z,101670.86
2018-11-27T08:17:10.457Z,101661.93
2018-11-27T08:19:37.703Z,101664.05
2018-11-27T08:22:05.551Z,101675.06
2018-11-27T08:24:32.755Z,101667.58
2018-11-27T08:27:00.100Z,101671.81
2018-11-27T08:29:28.886Z,101669.88
2018-11-27T08:31:56.335Z,101676.63
2018-11-27T08:34:27.725Z,101675.48
2018-11-27T08:36:55.279Z,101680.30
2018-11-27T08:39:23.552Z,101688.86
2018-11-27T08:41:51.340Z,101687.85
2018-11-27T08:44:18.744Z,101691.16
2018-11-27T08:46:47.380Z,101694.42
2018-11-27T08:49:22.418Z,101700.20
2018-11-27T08:51:50.368Z,101701.33
2018-11-27T08:54:17.635Z,101700.85
2018-11-27T08:56:44.985Z,101714.97
2018-11-27T08:59:12.185Z,101707.86
2018-11-27T09:01:39.407Z,101710.28
2018-11-27T09:04:06.860Z,101719.13
2018-11-27T09:06:34.073Z,101718.41
2018-11-27T09:09:01.334Z,101724.83
2018-11-27T09:11:28.607Z,101723.84
2018-11-27T09:13:56.950Z,101736.93
2018-11-27T09:16:24.331Z,101729.33
2018-11-27T09:18:51.807Z,101737.64
2018-11-27T09:21:19.104Z,101729.78
2018-11-27T09:23:46.341Z,101730.28
2018-11-27T09:26:13.603Z,101737.88
2018-11-27T09:28:40.952Z,101741.89
2018-11-27T09:31:08.182Z,101740.95
2018-11-27T09:33:35.530Z,101734.48
2018-11-27T09:36:02.787Z,101750.95
2018-11-27T09:38:30.124Z,101755.27
2018-11-27T09:40:57.536Z,101751.61
2018-11-27T09:43:26.239Z,101762.85
2018-11-27T09:45:53.444Z,101757.20
2018-11-27T09:48:20.781Z,101748.55
2018-11-27T09:50:47.967Z,101753.62
2018-11-27T09:53:15.535Z,101759.66
2018-11-27T09:55:42.760Z,101763.95
2018-11-27T09:58:09.944Z,101760.88
2018-11-27T10:00:37.165Z,101758.34
2018-11-27T10:03:09.113Z,101762.70
2018-11-27T10:05:36.487Z,101762.20
2018-11-27T10:08:04.551Z,101759.84
2018-11-27T10:10:31.890Z,101766.80
2018-11-27T10:12:59.156Z,101769.52
2018-11-27T10:15:27.348Z,101763.61
2018-11-27T10:17:55.877Z,101770.02
2018-11-27T10:20:24.830Z,101768.75
2018-11-27T10:22:52.144Z,101774.18
2018-11-27T10:25:19.418Z,101779.80
2018-11-27T10:27:46.671Z,101781.75
2018-11-27T10:30:17.113Z,101777.14
2018-11-27T10:32:44.539Z,101782.87
2018-11-27T10:35:17.484Z,101781.88
2018-11-27T10:37:44.891Z,101778.55
2018-11-27T10:40:12.260Z,101782.59
2018-11-27T10:42:39.557Z,101777.98
2018-11-27T10:45:09.531Z,101777.38
2018-11-27T10:47:36.753Z,101791.12
2018-11-27T10:50:06.947Z,101787.69
2018-11-27T10:52:36.595Z,101787.70
2018-11-27T10:55:04.953Z,101779.77
2018-11-27T10:57:32.135Z,101785.87
2018-11-27T10:59:59.385Z,101786.70
2018-11-27T11:02:34.753Z,101795.68
2018-11-27T11:05:03.193Z,101787.36
2018-11-27T11:07:30.384Z,101791.42
2018-11-27T11:09:57.624Z,101792.14
2018-11-27T11:12:26.032Z,101787.50
2018-11-27T11:14:53.468Z,101797.44
2018-11-27T11:17:20.736Z,101796.98
2018-11-27T11:19:48.055Z,101799.44
2018-11-27T11:22:15.368Z,101805.86
2018-11-27T11:24:43.375Z,101808.77
2018-11-27T11:27:15.333Z,101815.53
2018-11-27T11:29:58.982Z,101812.56
2018-11-27T11:38:51.343Z,101823.52
2018-11-27T11:41:19.562Z,101823.22
2018-11-27T11:43:46.982Z,101815.83
2018-11-27T11:46:14.519Z,101822.33
2018-11-27T11:48:41.780Z,101827.13
2018-11-27T11:51:09.124Z,101830.97
2018-11-27T11:53:36.604Z,101827.33
2018-11-27T11:56:04.237Z,101830.61
2018-11-27T11:58:33.770Z,101844.36
2018-11-27T12:01:01.407Z,101842.52
2018-11-27T12:03:32.295Z,101842.55
2018-11-27T12:06:10.283Z,101856.96
2018-11-27T12:08:43.099Z,101843.30
2018-11-27T12:11:10.760Z,101846.75
2018-11-27T12:13:38.032Z,101841.45
2018-11-27T12:16:05.335Z,101846.00
2018-11-27T12:18:32.586Z,101844.98
2018-11-27T12:20:59.806Z,101847.27
2018-11-27T12:23:27.044Z,101850.79
2018-11-27T12:25:54.502Z,101852.51
2018-11-27T12:28:21.735Z,101852.71
2018-11-27T12:30:48.901Z,101858.44
2018-11-27T12:33:16.166Z,101842.73
2018-11-27T12:35:43.935Z,101849.58
2018-11-27T12:38:11.618Z,101854.86
2018-11-27T12:40:38.978Z,101862.19
2018-11-27T12:43:06.303Z,101872.70
2018-11-27T12:45:33.545Z,101866.02
2018-11-27T12:48:01.852Z,101855.88
2018-11-27T12:50:37.563Z,101853.34
2018-11-27T12:53:06.266Z,101859.88
2018-11-27T12:55:33.912Z,101867.02
2018-11-27T12:58:01.120Z,101867.02
2018-11-27T13:00:28.498Z,101865.41
2018-11-27T13:02:57.479Z,101859.56
2018-11-27T13:05:28.373Z,101868.16
2018-11-27T13:07:57.794Z,101866.70
2018-11-27T13:10:25.044Z,101868.24
2018-11-27T13:12:52.338Z,101872.83
2018-11-27T13:15:20.263Z,101875.20
2018-11-27T13:17:48.751Z,101880.69
2018-11-27T13:20:17.011Z,101873.95
2018-11-27T13:22:44.330Z,101879.94
2018-11-27T13:25:14.980Z,101877.84
2018-11-27T13:27:42.984Z,101882.08
2018-11-27T13:30:13.585Z,101877.71
2018-11-27T13:32:42.712Z,101881.22
2018-11-27T13:35:11.334Z,101882.45
2018-11-27T13:37:38.587Z,101882.47
2018-11-27T13:40:07.455Z,101887.41
2018-11-27T13:42:34.663Z,101883.86
2018-11-27T13:45:02.174Z,101880.53
2018-11-27T13:47:29.403Z,101884.34
2018-11-27T13:49:56.531Z,101886.88
2018-11-27T13:52:23.650Z,101898.48
2018-11-27T13:54:50.906Z,101896.47
2018-11-27T13:57:18.080Z,101883.94
2018-11-27T13:59:45.201Z,101888.47
2018-11-27T14:02:12.430Z,101889.09
2018-11-27T14:04:39.561Z,101892.64
2018-11-27T14:07:06.734Z,101899.91
2018-11-27T14:09:33.995Z,101893.36
2018-11-27T14:12:01.158Z,101910.27
2018-11-27T14:14:28.286Z,101900.09
2018-11-27T14:16:55.541Z,101899.75
2018-11-27T14:19:22.706Z,101907.05
2018-11-27T14:21:49.833Z,101914.11
2018-11-27T14:24:17.038Z,101908.35
2018-11-27T14:26:44.289Z,101913.48
2018-11-27T14:29:11.416Z,101902.91
2018-11-27T14:31:38.588Z,101912.59
2018-11-27T14:34:05.729Z,101914.16
2018-11-27T14:36:32.863Z,101916.83
2018-11-27T14:39:00.059Z,101905.42
2018-11-27T14:41:27.185Z,101911.37
2018-11-27T14:43:54.315Z,101911.48
2018-11-27T14:46:21.479Z,101910.75
2018-11-27T14:48:48.592Z,101917.77
2018-11-27T14:51:15.710Z,101921.61
2018-11-27T14:53:42.899Z,101919.45
2018-11-27T14:56:10.027Z,101918.08
2018-11-27T14:58:37.172Z,101915.61
2018-11-27T15:01:05.130Z,101920.73
2018-11-27T15:03:32.252Z,101919.27
2018-11-27T15:05:59.399Z,101914.13
2018-11-27T15:08:26.592Z,101915.83
2018-11-27T15:10:53.743Z,101920.67
2018-11-27T15:13:20.875Z,101918.37
2018-11-27T15:15:48.053Z,101923.14
2018-11-27T15:18:15.316Z,101931.09
2018-11-27T15:20:42.446Z,101936.83
2018-11-27T15:23:09.634Z,101934.23
2018-11-27T15:25:36.774Z,101938.00
2018-11-27T15:28:04.067Z,101942.36
2018-11-27T15:30:34.810Z,101939.17
2018-11-27T15:33:01.931Z,101941.78
2018-11-27T15:35:29.077Z,101948.63
2018-11-27T15:37:56.267Z,101955.69
2018-11-27T15:40:26.339Z,101948.16
2018-11-27T15:42:53.556Z,101940.00
2018-11-27T15:45:21.870Z,101947.44
2018-11-27T15:47:49.144Z,101954.80
2018-11-27T15:50:16.315Z,101959.19
2018-11-27T15:52:43.535Z,101948.73
2018-11-27T15:55:28.565Z,101943.38
2018-11-27T15:58:16.230Z,101947.27
2018-11-27T16:00:43.698Z,101949.81
2018-11-27T16:03:10.926Z,101952.27
2018-11-27T16:05:38.819Z,101950.84
2018-11-27T16:08:06.962Z,101948.16
2018-11-27T16:10:34.110Z,101957.15
2018-11-27T16:13:01.286Z,101961.23
2018-11-27T16:15:28.414Z,101968.59
2018-11-27T16:17:55.550Z,101968.87
2018-11-27T16:20:22.732Z,101974.25
2018-11-27T16:22:50.992Z,101976.30
2018-11-27T16:25:20.311Z,101979.38
2018-11-27T16:27:47.510Z,101982.80
2018-11-27T16:30:16.726Z,101991.58
2018-11-27T16:32:43.886Z,101990.75
2018-11-27T16:35:11.935Z,102002.74
2018-11-27T16:37:39.317Z,101996.50
2018-11-27T16:40:11.307Z,102002.41
2018-11-27T16:42:38.493Z,102003.77
2018-11-27T16:45:08.018Z,102002.70
2018-11-27T16:47:35.250Z,102007.50
2018-11-27T16:50:02.404Z,102011.30
2018-11-27T16:52:29.598Z,102018.62
2018-11-27T16:54:56.780Z,102019.73
2018-11-27T16:57:23.988Z,102026.14
2018-11-27T16:59:51.128Z,102024.19
2018-11-27T17:02:18.394Z,102021.97
2018-11-27T17:04:45.503Z,102021.46
2018-11-27T17:07:12.642Z,102023.80
2018-11-27T17:09:39.875Z,102029.61
2018-11-27T17:12:07.007Z,102035.20
2018-11-27T17:14:34.194Z,102029.75
2018-11-27T17:17:01.380Z,102035.05
2018-11-27T17:19:28.620Z,102035.35
2018-11-27T17:21:55.739Z,102036.91
2018-11-27T17:24:22.955Z,102038.27
2018-11-27T17:26:50.195Z,102033.55
2018-11-27T17:29:17.347Z,102036.25
2018-11-27T17:31:44.545Z,102039.66
2018-11-27T17:34:13.472Z,102039.75
2018-11-27T17:36:40.660Z,102040.34
2018-11-27T17:39:10.067Z,102052.20
2018-11-27T17:41:37.215Z,102061.40
2018-11-27T17:44:05.545Z,102063.31
2018-11-27T17:46:32.776Z,102068.36
2018-11-27T17:48:59.904Z,102065.84
2018-11-27T17:51:27.031Z,102073.45
2018-11-27T17:53:54.346Z,102066.23
2018-11-27T17:56:21.528Z,102070.73
2018-11-27T17:58:48.651Z,102078.16
2018-11-27T18:01:15.880Z,102070.83
2018-11-27T18:03:43.035Z,102067.53
2018-11-27T18:06:10.191Z,102063.08
2018-11-27T18:08:37.373Z,102060.16
2018-11-27T18:11:04.600Z,102059.98
2018-11-27T18:13:31.722Z,102063.49
2018-11-27T18:15:58.922Z,102071.57
2018-11-27T18:18:26.055Z,102071.73
2018-11-27T18:20:53.213Z,102076.78
2018-11-27T18:23:20.394Z,102073.45
2018-11-27T18:25:47.547Z,102069.16
2018-11-27T18:28:14.826Z,102075.16
2018-11-27T18:30:42.022Z,102061.22
2018-11-27T18:33:09.169Z,102067.50
2018-11-27T18:35:36.315Z,102062.05
2018-11-27T18:38:03.522Z,102065.94
2018-11-27T18:40:30.799Z,102065.52
2018-11-27T18:42:57.959Z,102064.37
2018-11-27T18:45:27.522Z,102068.20
2018-11-27T18:47:54.755Z,102065.88
2018-11-27T18:50:22.902Z,102060.55
2018-11-27T18:52:50.092Z,102061.02
2018-11-27T18:55:17.279Z,102068.53
2018-11-27T18:57:45.213Z,102073.56
2018-11-27T19:00:17.592Z,102071.66
2018-11-27T19:02:44.819Z,102061.08
2018-11-27T19:05:11.998Z,102070.30
2018-11-27T19:07:39.215Z,102069.97
2018-11-27T19:10:12.655Z,102073.22
2018-11-27T19:12:39.959Z,102069.27
2018-11-27T19:15:11.647Z,102070.67
2018-11-27T19:17:38.775Z,102075.31
2018-11-27T19:20:09.346Z,102082.61
2018-11-27T19:22:36.472Z,102088.16
2018-11-27T19:25:04.416Z,102091.06
2018-11-27T19:27:31.703Z,102095.75
2018-11-27T19:29:58.932Z,102093.55
2018-11-27T19:32:26.087Z,102101.73
2018-11-27T19:34:53.372Z,102099.08
2018-11-27T19:37:20.619Z,102097.38
2018-11-27T19:39:47.876Z,102100.58
2018-11-27T19:42:16.049Z,102100.44
2018-11-27T19:44:43.271Z,102100.59
2018-11-27T19:47:10.465Z,102094.19
2018-11-27T19:49:37.858Z,102099.50
2018-11-27T19:52:05.064Z,102105.98
2018-11-27T19:54:32.191Z,102101.47
2018-11-27T19:56:59.603Z,102103.92
2018-11-27T19:59:26.842Z,102104.21
2018-11-27T20:01:54.385Z,102107.39
2018-11-27T20:04:21.615Z,102121.21
2018-11-27T20:06:48.771Z,102116.20
2018-11-27T20:09:16.050Z,102123.98
2018-11-27T20:11:43.268Z,102118.59
2018-11-27T20:14:10.415Z,102117.09
2018-11-27T20:16:37.579Z,102117.63
2018-11-27T20:19:05.296Z,102119.74
2018-11-27T20:21:32.548Z,102125.14
2018-11-27T20:23:59.695Z,102123.28
2018-11-27T20:26:26.940Z,102134.95
2018-11-27T20:28:54.103Z,102130.33
2018-11-27T20:31:21.240Z,102134.50
2018-11-27T20:33:48.512Z,102130.00
2018-11-27T20:36:15.708Z,102140.50
2018-11-27T20:38:42.856Z,102136.83
2018-11-27T20:41:10.091Z,102133.27
2018-11-27T20:43:37.231Z,102137.34
2018-11-27T20:46:04.817Z,102140.08
2018-11-27T20:48:32.123Z,102138.37
2018-11-27T20:50:59.291Z,102140.55
2018-11-27T20:53:26.572Z,102140.23
2018-11-27T20:55:53.819Z,102143.64
2018-11-27T20:58:20.976Z,102146.97
2018-11-27T21:00:49.651Z,102152.77
2018-11-27T21:03:16.955Z,102161.17
2018-11-27T21:05:44.140Z,102157.55
2018-11-27T21:08:11.286Z,102159.66
2018-11-27T21:10:38.845Z,102161.52
2018-11-27T21:13:07.063Z,102164.98
2018-11-27T21:15:34.322Z,102164.66
2018-11-27T21:18:01.541Z,102175.01
2018-11-27T21:20:28.696Z,102181.98
2018-11-27T21:22:55.847Z,102182.45
2018-11-27T21:25:24.098Z,102183.69
2018-11-27T21:27:55.435Z,102184.03
2018-11-27T21:30:22.602Z,102184.66
2018-11-27T21:32:49.838Z,102180.75
2018-11-27T21:35:17.142Z,102177.41
2018-11-27T21:37:44.345Z,102165.47
2018-11-27T21:40:14.576Z,102167.10
2018-11-27T21:42:41.712Z,102176.87
2018-11-27T21:45:11.284Z,102172.79
2018-11-27T21:47:38.534Z,102177.75
2018-11-27T21:50:08.045Z,102179.39
2018-11-27T21:52:35.219Z,102185.39
2018-11-27T21:55:02.422Z,102178.79
2018-11-27T21:57:29.553Z,102184.98
2018-11-27T21:59:56.687Z,102184.86
2018-11-27T22:02:23.879Z,102198.14
2018-11-27T22:04:51.081Z,102189.77
2018-11-27T22:07:18.226Z,102188.95
2018-11-27T22:09:45.510Z,102194.22
2018-11-27T22:12:12.657Z,102200.14
2018-11-27T22:14:39.792Z,102199.59
2018-11-27T22:17:07.004Z,102197.95
2018-11-27T22:19:34.163Z,102196.41
2018-11-27T22:22:01.402Z,102204.11
2018-11-27T22:24:28.603Z,102203.20
2018-11-27T22:26:55.771Z,102205.95
2018-11-27T22:29:22.902Z,102213.32
2018-11-27T22:31:50.087Z,102219.58
2018-11-27T22:34:17.259Z,102220.41
2018-11-27T22:36:44.416Z,102215.98
2018-11-27T22:39:11.659Z,102220.75
2018-11-27T22:41:38.811Z,102227.97
2018-11-27T22:44:06.039Z,102234.48
2018-11-27T22:46:33.243Z,102239.85
2018-11-27T22:49:00.470Z,102239.44
2018-11-27T22:51:27.619Z,102241.17
2018-11-27T22:53:54.822Z,102243.42
2018-11-27T22:56:22.007Z,102245.20
2018-11-27T22:58:49.147Z,102245.73
2018-11-27T23:01:16.383Z,102243.33
2018-11-27T23:03:43.546Z,102243.14
2018-11-27T23:06:11.072Z,102239.85
2018-11-27T23:08:38.264Z,102239.94
2018-11-27T23:11:05.523Z,102238.70
2018-11-27T23:13:32.720Z,102237.13
2018-11-27T23:15:59.911Z,102247.98
2018-11-27T23:18:27.187Z,102253.16
2018-11-27T23:20:54.319Z,102248.45
2018-11-27T23:23:21.531Z,102237.80
2018-11-27T23:25:48.683Z,102234.95
2018-11-27T23:28:15.904Z,102245.58
2018-11-27T23:30:43.092Z,102242.03
2018-11-27T23:33:10.286Z,102241.84
2018-11-27T23:35:37.439Z,102234.66
2018-11-27T23:38:04.666Z,102231.19
2018-11-27T23:40:31.811Z,102234.48
2018-11-27T23:42:59.439Z,102234.82
2018-11-27T23:45:26.627Z,102242.60
2018-11-27T23:47:53.799Z,102240.67
2018-11-27T23:50:21.745Z,102247.22
2018-11-27T23:52:49.030Z,102241.21
2018-11-27T23:55:17.026Z,102248.04
2018-11-27T23:57:44.715Z,102251.33
